createdAt,value
2019-02-14T00:01:56.825Z,7.81
2019-02-14T00:06:59.951Z,7.81
2019-02-14T00:12:02.467Z,7.82
2019-02-14T00:17:05.474Z,7.82
2019-02-14T00:22:08.564Z,7.80
2019-02-14T00:27:10.717Z,7.82
2019-02-14T00:32:13.175Z,7.80
2019-02-14T00:37:15.343Z,7.79
2019-02-14T00:42:17.547Z,7.79
2019-02-14T00:47:20.105Z,7.79
2019-02-14T00:52:23.109Z,7.79
2019-02-14T00:57:26.534Z,7.79
2019-02-14T01:02:29.245Z,7.78
2019-02-14T01:07:31.537Z,7.78
2019-02-14T01:12:33.720Z,7.77
2019-02-14T01:17:36.477Z,7.79
2019-02-14T01:22:38.987Z,7.78
2019-02-14T01:27:41.405Z,7.75
2019-02-14T01:32:44.986Z,7.74
2019-02-14T01:37:48.239Z,7.73
2019-02-14T01:42:50.754Z,7.72
2019-02-14T01:47:53.459Z,7.69
2019-02-14T01:52:55.624Z,7.67
2019-02-14T01:57:57.799Z,7.66
2019-02-14T02:03:00.032Z,7.63
2019-02-14T02:08:02.858Z,7.64
2019-02-14T02:13:05.635Z,7.64
2019-02-14T02:18:07.829Z,7.66
2019-02-14T02:23:10.325Z,7.67
2019-02-14T02:28:13.141Z,7.69
2019-02-14T02:33:15.993Z,7.71
2019-02-14T02:38:18.178Z,7.72
2019-02-14T02:43:21.089Z,7.76
2019-02-14T02:48:23.884Z,7.76
2019-02-14T02:53:26.367Z,7.76
2019-02-14T02:58:28.691Z,7.77
2019-02-14T03:03:30.877Z,7.77
2019-02-14T03:08:33.346Z,7.75
2019-02-14T03:13:35.531Z,7.73
2019-02-14T03:18:37.786Z,7.73
2019-02-14T03:23:40.514Z,7.71
2019-02-14T03:28:42.908Z,7.71
2019-02-14T03:33:47.042Z,7.69
2019-02-14T03:38:50.336Z,7.70
2019-02-14T03:43:52.519Z,7.74
2019-02-14T03:48:55.629Z,7.71
2019-02-14T03:53:57.826Z,7.70
2019-02-14T03:59:00.056Z,7.64
2019-02-14T04:04:03.230Z,7.64
2019-02-14T04:09:07.190Z,7.63
2019-02-14T04:14:09.353Z,7.59
2019-02-14T04:19:12.172Z,7.56
2019-02-14T04:24:14.919Z,7.53
2019-02-14T04:29:17.422Z,7.50
2019-02-14T04:34:20.183Z,7.49
2019-02-14T04:39:22.607Z,7.47
2019-02-14T04:44:24.803Z,7.49
2019-02-14T04:49:27.019Z,7.48
2019-02-14T04:54:29.775Z,7.48
2019-02-14T04:59:32.650Z,7.48
2019-02-14T05:04:35.647Z,7.47
2019-02-14T05:09:38.668Z,7.46
2019-02-14T05:14:41.389Z,7.49
2019-02-14T05:19:43.738Z,7.53
2019-02-14T05:24:46.088Z,7.55
2019-02-14T05:29:48.377Z,7.56
2019-02-14T05:34:50.626Z,7.59
2019-02-14T05:39:52.901Z,7.58
2019-02-14T05:44:55.095Z,7.56
2019-02-14T05:49:58.004Z,7.56
2019-02-14T05:55:00.787Z,7.58
2019-02-14T06:00:04.366Z,7.56
2019-02-14T06:05:07.996Z,7.56
2019-02-14T06:10:10.841Z,7.55
2019-02-14T06:15:13.735Z,7.54
2019-02-14T06:20:16.804Z,7.52
2019-02-14T06:25:19.320Z,7.52
2019-02-14T06:30:22.226Z,7.50
2019-02-14T06:35:24.698Z,7.50
2019-02-14T06:40:26.886Z,7.56
2019-02-14T06:45:29.131Z,7.58
2019-02-14T06:50:34.829Z,7.57
2019-02-14T06:55:35.838Z,7.57
2019-02-14T07:00:38.349Z,7.58
2019-02-14T07:05:41.627Z,7.56
2019-02-14T07:10:44.564Z,7.55
2019-02-14T07:15:47.042Z,7.59
2019-02-14T07:20:49.231Z,7.61
2019-02-14T07:25:52.335Z,7.67
2019-02-14T07:30:55.423Z,7.71
2019-02-14T07:35:57.797Z,7.77
2019-02-14T07:41:00.269Z,7.78
2019-02-14T07:46:02.876Z,7.82
2019-02-14T07:51:05.092Z,7.83
2019-02-14T07:56:08.101Z,7.86
2019-02-14T08:01:10.917Z,7.88
2019-02-14T08:06:13.412Z,7.89
2019-02-14T08:11:16.420Z,7.92
2019-02-14T08:16:18.568Z,7.95
2019-02-14T08:21:21.957Z,7.95
2019-02-14T08:26:25.591Z,7.97
2019-02-14T08:31:28.247Z,8.01
2019-02-14T08:36:31.377Z,7.99
2019-02-14T08:41:33.659Z,8.01
2019-02-14T08:46:35.809Z,8.10
2019-02-14T08:51:38.002Z,8.12
2019-02-14T08:56:40.432Z,8.18
2019-02-14T09:01:42.660Z,8.30
2019-02-14T09:06:45.087Z,8.37
2019-02-14T09:11:47.262Z,8.55
2019-02-14T09:16:49.464Z,8.71
2019-02-14T09:21:52.063Z,8.83
2019-02-14T09:26:54.398Z,8.95
2019-02-14T09:31:56.901Z,9.14
2019-02-14T09:36:59.442Z,9.33
2019-02-14T09:42:01.999Z,9.50
2019-02-14T09:47:04.586Z,9.64
2019-02-14T09:52:07.434Z,9.65
2019-02-14T09:57:09.953Z,9.61
2019-02-14T10:02:12.745Z,9.66
2019-02-14T10:07:15.649Z,9.58
2019-02-14T10:12:18.446Z,9.50
2019-02-14T10:17:22.304Z,9.68
2019-02-14T10:22:25.172Z,10.35
2019-02-14T10:27:27.374Z,10.43
2019-02-14T10:32:30.076Z,10.98
2019-02-14T10:37:32.742Z,11.19
2019-02-14T10:42:35.284Z,10.76
2019-02-14T10:47:37.808Z,10.47
2019-02-14T10:52:41.605Z,10.57
2019-02-14T10:57:45.323Z,11.02
2019-02-14T11:02:49.561Z,11.63
2019-02-14T11:07:52.589Z,11.74
2019-02-14T11:12:54.983Z,12.30
2019-02-14T11:17:58.055Z,12.18
2019-02-14T11:23:00.968Z,11.97
2019-02-14T11:28:03.403Z,11.90
2019-02-14T11:33:06.816Z,12.68
2019-02-14T11:38:09.381Z,13.39
2019-02-14T11:43:11.888Z,14.08
2019-02-14T11:48:14.957Z,14.40
2019-02-14T11:53:18.414Z,14.04
2019-02-14T11:58:20.693Z,13.97
2019-02-14T12:03:22.884Z,14.17
2019-02-14T12:08:25.185Z,14.35
2019-02-14T12:13:27.391Z,14.36
2019-02-14T12:18:30.418Z,14.72
2019-02-14T12:23:33.366Z,14.97
2019-02-14T12:28:35.453Z,15.42
2019-02-14T12:33:39.133Z,15.63
2019-02-14T12:38:41.595Z,15.41
2019-02-14T12:43:44.424Z,15.17
2019-02-14T12:48:46.979Z,15.47
2019-02-14T12:53:49.683Z,15.75
2019-02-14T12:58:52.752Z,15.86
2019-02-14T13:03:55.483Z,15.78
2019-02-14T13:08:57.907Z,15.68
2019-02-14T13:14:00.346Z,15.42
2019-02-14T13:19:02.811Z,15.93
2019-02-14T13:24:05.274Z,16.25
2019-02-14T13:29:07.769Z,16.41
2019-02-14T13:34:10.607Z,16.59
2019-02-14T13:39:13.506Z,16.57
2019-02-14T13:44:16.841Z,16.51
2019-02-14T13:49:19.037Z,16.29
2019-02-14T13:54:21.485Z,16.00
2019-02-14T13:59:24.394Z,16.12
2019-02-14T14:04:26.686Z,16.07
2019-02-14T14:09:38.273Z,16.13
2019-02-14T14:14:33.878Z,15.89
2019-02-14T14:19:37.196Z,15.70
2019-02-14T14:24:39.706Z,15.12
2019-02-14T14:29:44.347Z,15.10
2019-02-14T14:34:46.636Z,15.01
2019-02-14T14:39:49.519Z,14.72
2019-02-14T14:44:53.136Z,14.60
2019-02-14T14:50:00.192Z,14.44
2019-02-14T14:55:03.186Z,14.35
2019-02-14T15:00:06.173Z,14.11
2019-02-14T15:05:08.905Z,14.06
2019-02-14T15:10:12.065Z,13.89
2019-02-14T15:15:15.148Z,13.70
2019-02-14T15:20:18.154Z,13.85
2019-02-14T15:25:20.899Z,13.78
2019-02-14T15:30:26.416Z,13.71
2019-02-14T15:35:30.141Z,13.74
2019-02-14T15:40:32.635Z,13.75
2019-02-14T15:45:35.272Z,13.67
2019-02-14T15:50:37.658Z,13.64
2019-02-14T15:55:41.661Z,13.48
2019-02-14T16:00:44.625Z,13.29
2019-02-14T16:05:47.727Z,13.16
2019-02-14T16:10:54.079Z,12.98
2019-02-14T16:15:56.611Z,12.88
2019-02-14T16:21:00.514Z,12.71
2019-02-14T16:26:02.829Z,12.55
2019-02-14T16:31:04.985Z,12.46
2019-02-14T16:36:07.244Z,12.44
2019-02-14T16:41:09.436Z,12.33
2019-02-14T16:46:11.635Z,12.19
2019-02-14T16:51:13.760Z,12.11
2019-02-14T16:56:15.901Z,12.03
2019-02-14T17:01:18.143Z,11.92
2019-02-14T17:06:20.327Z,11.81
2019-02-14T17:11:22.905Z,11.71
2019-02-14T17:16:26.229Z,11.61
2019-02-14T17:21:29.296Z,11.52
2019-02-14T17:26:32.110Z,11.38
2019-02-14T17:31:34.300Z,11.29
2019-02-14T17:36:36.452Z,11.17
2019-02-14T17:41:38.966Z,11.06
2019-02-14T17:46:41.579Z,10.95
2019-02-14T17:51:44.722Z,10.86
2019-02-14T17:56:47.981Z,10.78
2019-02-14T18:01:50.157Z,10.66
2019-02-14T18:06:52.637Z,10.58
2019-02-14T18:11:54.817Z,10.47
2019-02-14T18:16:57.631Z,10.36
2019-02-14T18:22:00.719Z,10.24
2019-02-14T18:27:03.336Z,10.14
2019-02-14T18:32:05.732Z,10.03
2019-02-14T18:37:08.170Z,9.86
2019-02-14T18:42:10.754Z,9.76
2019-02-14T18:47:12.932Z,9.70
2019-02-14T18:52:15.096Z,9.61
2019-02-14T18:57:17.889Z,9.52
2019-02-14T19:02:22.670Z,9.46
2019-02-14T19:07:24.891Z,9.39
2019-02-14T19:12:27.442Z,9.31
2019-02-14T19:17:31.447Z,9.25
2019-02-14T19:22:34.857Z,9.17
2019-02-14T19:27:37.433Z,9.08
2019-02-14T19:32:39.659Z,9.11
2019-02-14T19:37:41.843Z,9.08
2019-02-14T19:42:44.248Z,9.03
2019-02-14T19:47:46.370Z,8.98
2019-02-14T19:52:48.837Z,8.99
2019-02-14T19:57:51.971Z,8.88
2019-02-14T20:02:54.165Z,8.71
2019-02-14T20:07:57.082Z,8.74
2019-02-14T20:12:59.626Z,8.77
2019-02-14T20:18:01.716Z,8.69
2019-02-14T20:23:04.214Z,8.65
2019-02-14T20:28:06.385Z,8.69
2019-02-14T20:33:08.928Z,8.69
2019-02-14T20:38:11.072Z,8.61
2019-02-14T20:43:13.383Z,8.54
2019-02-14T20:48:15.747Z,8.50
2019-02-14T20:53:19.146Z,8.47
2019-02-14T20:58:22.188Z,8.43
2019-02-14T21:03:24.904Z,8.37
2019-02-14T21:08:27.769Z,8.30
2019-02-14T21:13:29.952Z,8.20
2019-02-14T21:18:32.079Z,8.11
2019-02-14T21:23:35.125Z,8.03
2019-02-14T21:28:37.449Z,7.81
2019-02-14T21:33:39.972Z,7.59
2019-02-14T21:38:42.175Z,7.41
2019-02-14T21:43:44.875Z,7.30
2019-02-14T21:48:47.756Z,7.37
2019-02-14T21:53:50.636Z,7.44
2019-02-14T21:58:53.127Z,7.43
2019-02-14T22:03:57.165Z,7.40
2019-02-14T22:08:59.506Z,7.41
2019-02-14T22:14:01.870Z,7.32
2019-02-14T22:19:06.148Z,7.26
2019-02-14T22:24:09.542Z,7.18
2019-02-14T22:29:12.558Z,7.16
2019-02-14T22:34:15.346Z,7.16
2019-02-14T22:39:17.497Z,7.15
2019-02-14T22:44:19.691Z,7.12
2019-02-14T22:49:21.916Z,7.07
2019-02-14T22:54:24.016Z,7.02
2019-02-14T22:59:26.352Z,6.93
2019-02-14T23:04:29.013Z,6.82
2019-02-14T23:09:31.709Z,6.70
2019-02-14T23:14:34.153Z,6.53
2019-02-14T23:19:36.413Z,6.46
2019-02-14T23:24:38.681Z,6.38
2019-02-14T23:29:40.866Z,6.25
2019-02-14T23:34:43.731Z,6.15
2019-02-14T23:39:47.007Z,6.10
2019-02-14T23:44:49.198Z,6.09
2019-02-14T23:49:52.809Z,6.05
2019-02-14T23:54:55.018Z,5.88
2019-02-14T23:59:58.651Z,5.82
